sensor_id;sensor_type;location;lat;lon;timestamp;pressure;altitude;pressure_sealevel;temperature;humidity
51829;BME280;37881;48.024;8.774;2022-09-12T00:01:49;94054.78;;;9.56;92.08
51829;BME280;37881;48.024;8.774;2022-09-12T00:04:16;94057.06;;;9.62;91.81
51829;BME280;37881;48.024;8.774;2022-09-12T00:06:43;94056.03;;;9.48;92.62
51829;BME280;37881;48.024;8.774;2022-09-12T00:09:12;94051.72;;;9.51;91.94
51829;BME280;37881;48.024;8.774;2022-09-12T00:11:42;94056.78;;;9.52;92.66
51829;BME280;37881;48.024;8.774;2022-09-12T00:14:11;94058.69;;;9.55;92.50
51829;BME280;37881;48.024;8.774;2022-09-12T00:16:38;94051.31;;;9.52;92.18
51829;BME280;37881;48.024;8.774;2022-09-12T00:19:06;94055.28;;;9.48;92.76
51829;BME280;37881;48.024;8.774;2022-09-12T00:21:34;94052.47;;;9.51;92.45
51829;BME280;37881;48.024;8.774;2022-09-12T00:24:01;94056.78;;;9.52;92.16
51829;BME280;37881;48.024;8.774;2022-09-12T00:26:28;94040.75;;;9.51;92.32
51829;BME280;37881;48.024;8.774;2022-09-12T00:28:55;94048.22;;;9.47;92.55
51829;BME280;37881;48.024;8.774;2022-09-12T00:31:24;94047.06;;;9.48;92.44
51829;BME280;37881;48.024;8.774;2022-09-12T00:33:53;94044.31;;;9.48;92.29
51829;BME280;37881;48.024;8.774;2022-09-12T00:36:22;94038.94;;;9.33;92.28
51829;BME280;37881;48.024;8.774;2022-09-12T00:38:49;94048.34;;;9.32;92.08
51829;BME280;37881;48.024;8.774;2022-09-12T00:41:20;94046.13;;;9.16;92.69
51829;BME280;37881;48.024;8.774;2022-09-12T00:43:55;94046.47;;;9.22;92.26
51829;BME280;37881;48.024;8.774;2022-09-12T00:46:28;94047.66;;;9.21;92.11
51829;BME280;37881;48.024;8.774;2022-09-12T00:49:00;94045.34;;;9.16;91.82
51829;BME280;37881;48.024;8.774;2022-09-12T00:51:31;94039.88;;;9.16;91.69
51829;BME280;37881;48.024;8.774;2022-09-12T00:54:02;94037.53;;;9.14;91.67
51829;BME280;37881;48.024;8.774;2022-09-12T00:56:31;94037.16;;;9.12;91.66
51829;BME280;37881;48.024;8.774;2022-09-12T00:59:11;94033.66;;;9.12;90.99
51829;BME280;37881;48.024;8.774;2022-09-12T01:01:40;94023.16;;;9.03;91.79
51829;BME280;37881;48.024;8.774;2022-09-12T01:04:08;94024.31;;;9.06;91.70
51829;BME280;37881;48.024;8.774;2022-09-12T01:06:39;94021.59;;;9.06;91.01
51829;BME280;37881;48.024;8.774;2022-09-12T01:09:07;94022.81;;;8.97;90.17
51829;BME280;37881;48.024;8.774;2022-09-12T01:11:36;94018.50;;;8.96;90.80
51829;BME280;37881;48.024;8.774;2022-09-12T01:14:05;94003.28;;;8.95;90.90
51829;BME280;37881;48.024;8.774;2022-09-12T01:16:36;94006.03;;;8.92;90.32
51829;BME280;37881;48.024;8.774;2022-09-12T01:24:51;94012.47;;;8.67;91.46
51829;BME280;37881;48.024;8.774;2022-09-12T01:27:30;94009.75;;;8.67;92.07
51829;BME280;37881;48.024;8.774;2022-09-12T01:33:24;94007.00;;;8.67;92.97
51829;BME280;37881;48.024;8.774;2022-09-12T01:38:55;94005.44;;;8.63;93.74
51829;BME280;37881;48.024;8.774;2022-09-12T01:55:03;93985.63;;;8.48;94.88
51829;BME280;37881;48.024;8.774;2022-09-12T01:57:54;93978.22;;;8.37;94.77
51829;BME280;37881;48.024;8.774;2022-09-12T02:00:23;93985.75;;;8.19;94.68
51829;BME280;37881;48.024;8.774;2022-09-12T02:02:55;93987.81;;;7.93;95.53
51829;BME280;37881;48.024;8.774;2022-09-12T02:05:35;93974.25;;;7.68;96.83
51829;BME280;37881;48.024;8.774;2022-09-12T02:08:14;93977.72;;;7.76;96.74
51829;BME280;37881;48.024;8.774;2022-09-12T02:10:46;93971.88;;;7.81;96.58
51829;BME280;37881;48.024;8.774;2022-09-12T02:13:23;93967.94;;;7.89;96.15
51829;BME280;37881;48.024;8.774;2022-09-12T02:15:55;93964.06;;;7.83;96.75
51829;BME280;37881;48.024;8.774;2022-09-12T02:18:24;93962.47;;;7.86;96.11
51829;BME280;37881;48.024;8.774;2022-09-12T02:20:53;93960.13;;;7.88;96.23
51829;BME280;37881;48.024;8.774;2022-09-12T02:23:25;93956.63;;;7.91;95.67
51829;BME280;37881;48.024;8.774;2022-09-12T02:26:10;93950.34;;;7.87;95.73
51829;BME280;37881;48.024;8.774;2022-09-12T02:28:41;93950.78;;;7.85;96.77
51829;BME280;37881;48.024;8.774;2022-09-12T02:36:36;93951.16;;;7.91;97.35
51829;BME280;37881;48.024;8.774;2022-09-12T02:39:08;93951.97;;;7.77;97.62
51829;BME280;37881;48.024;8.774;2022-09-12T02:41:35;93962.09;;;7.84;96.69
51829;BME280;37881;48.024;8.774;2022-09-12T02:44:02;93949.63;;;7.79;96.90
51829;BME280;37881;48.024;8.774;2022-09-12T02:46:46;93953.16;;;7.76;96.88
51829;BME280;37881;48.024;8.774;2022-09-12T02:49:15;93958.66;;;7.65;96.75
51829;BME280;37881;48.024;8.774;2022-09-12T02:51:43;93957.84;;;7.72;96.63
51829;BME280;37881;48.024;8.774;2022-09-12T02:54:11;93954.34;;;7.68;96.92
51829;BME280;37881;48.024;8.774;2022-09-12T02:56:42;93959.81;;;7.64;96.13
51829;BME280;37881;48.024;8.774;2022-09-12T02:59:11;93952.38;;;7.68;96.00
51829;BME280;37881;48.024;8.774;2022-09-12T03:04:18;93948.13;;;7.67;96.26
51829;BME280;37881;48.024;8.774;2022-09-12T03:07:28;93941.44;;;7.72;96.26
51829;BME280;37881;48.024;8.774;2022-09-12T03:10:22;93934.44;;;7.71;96.66
51829;BME280;37881;48.024;8.774;2022-09-12T03:13:13;93935.25;;;7.64;96.33
51829;BME280;37881;48.024;8.774;2022-09-12T03:18:28;93935.66;;;7.55;96.11
51829;BME280;37881;48.024;8.774;2022-09-12T03:23:45;93942.34;;;7.40;97.83
51829;BME280;37881;48.024;8.774;2022-09-12T03:26:29;93943.91;;;7.34;98.88
51829;BME280;37881;48.024;8.774;2022-09-12T03:28:59;93940.78;;;7.39;98.87
51829;BME280;37881;48.024;8.774;2022-09-12T03:31:27;93941.94;;;7.34;98.92
51829;BME280;37881;48.024;8.774;2022-09-12T03:33:54;93944.69;;;7.42;97.93
51829;BME280;37881;48.024;8.774;2022-09-12T03:36:23;93940.41;;;7.40;98.11
51829;BME280;37881;48.024;8.774;2022-09-12T03:38:51;93944.72;;;7.31;98.47
51829;BME280;37881;48.024;8.774;2022-09-12T03:41:17;93948.97;;;7.35;98.70
51829;BME280;37881;48.024;8.774;2022-09-12T03:43:44;93956.78;;;7.26;99.37
51829;BME280;37881;48.024;8.774;2022-09-12T03:46:12;93955.28;;;7.07;99.95
51829;BME280;37881;48.024;8.774;2022-09-12T03:48:39;93949.44;;;7.12;100.00
51829;BME280;37881;48.024;8.774;2022-09-12T03:51:08;93948.63;;;7.12;100.00
51829;BME280;37881;48.024;8.774;2022-09-12T03:53:35;93946.69;;;7.23;100.00
51829;BME280;37881;48.024;8.774;2022-09-12T03:56:07;93950.19;;;7.27;99.99
51829;BME280;37881;48.024;8.774;2022-09-12T03:58:34;93959.56;;;7.19;99.81
51829;BME280;37881;48.024;8.774;2022-09-12T04:01:16;93953.69;;;7.28;100.00
51829;BME280;37881;48.024;8.774;2022-09-12T04:03:45;93949.03;;;7.17;99.77
51829;BME280;37881;48.024;8.774;2022-09-12T04:06:14;93947.88;;;7.18;99.88
51829;BME280;37881;48.024;8.774;2022-09-12T04:08:42;93944.72;;;7.31;99.95
51829;BME280;37881;48.024;8.774;2022-09-12T04:11:12;93947.06;;;7.25;99.63
51829;BME280;37881;48.024;8.774;2022-09-12T04:13:41;93948.59;;;7.33;100.00
51829;BME280;37881;48.024;8.774;2022-09-12T04:16:08;93950.94;;;7.28;100.00
51829;BME280;37881;48.024;8.774;2022-09-12T04:18:36;93951.38;;;7.08;100.00
51829;BME280;37881;48.024;8.774;2022-09-12T04:21:11;93952.13;;;7.16;100.00
51829;BME280;37881;48.024;8.774;2022-09-12T04:23:38;93948.25;;;7.20;100.00
51829;BME280;37881;48.024;8.774;2022-09-12T04:26:05;93953.69;;;7.35;100.00
51829;BME280;37881;48.024;8.774;2022-09-12T04:28:34;93954.44;;;7.39;100.00
51829;BME280;37881;48.024;8.774;2022-09-12T04:31:10;93951.34;;;7.26;100.00
51829;BME280;37881;48.024;8.774;2022-09-12T04:33:38;93951.34;;;7.33;100.00
51829;BME280;37881;48.024;8.774;2022-09-12T04:36:08;93942.75;;;7.35;100.00
51829;BME280;37881;48.024;8.774;2022-09-12T04:38:35;93949.00;;;7.32;100.00
51829;BME280;37881;48.024;8.774;2022-09-12T04:41:31;93947.44;;;7.27;100.00
51829;BME280;37881;48.024;8.774;2022-09-12T04:44:00;93939.22;;;7.34;100.00
51829;BME280;37881;48.024;8.774;2022-09-12T04:46:32;93942.75;;;7.31;100.00
51829;BME280;37881;48.024;8.774;2022-09-12T04:49:00;93943.53;;;7.28;100.00
51829;BME280;37881;48.024;8.774;2022-09-12T04:51:30;93950.56;;;7.33;100.00
51829;BME280;37881;48.024;8.774;2022-09-12T04:53:59;93941.56;;;7.36;100.00
51829;BME280;37881;48.024;8.774;2022-09-12T04:56:27;93947.06;;;7.18;100.00
51829;BME280;37881;48.024;8.774;2022-09-12T04:58:58;93946.72;;;7.12;100.00
51829;BME280;37881;48.024;8.774;2022-09-12T05:01:27;93954.09;;;7.23;100.00
51829;BME280;37881;48.024;8.774;2022-09-12T05:03:55;93948.25;;;7.17;100.00
51829;BME280;37881;48.024;8.774;2022-09-12T05:06:24;93954.09;;;7.08;100.00
51829;BME280;37881;48.024;8.774;2022-09-12T05:08:52;93951.38;;;7.19;100.00
51829;BME280;37881;48.024;8.774;2022-09-12T05:11:21;93955.25;;;7.22;100.00
51829;BME280;37881;48.024;8.774;2022-09-12T05:13:53;93949.03;;;7.17;100.00
51829;BME280;37881;48.024;8.774;2022-09-12T05:16:21;93956.06;;;7.11;100.00
51829;BME280;37881;48.024;8.774;2022-09-12T05:18:48;93950.22;;;7.16;100.00
51829;BME280;37881;48.024;8.774;2022-09-12T05:21:18;93953.28;;;7.22;100.00
51829;BME280;37881;48.024;8.774;2022-09-12T05:23:45;93948.25;;;7.20;100.00
51829;BME280;37881;48.024;8.774;2022-09-12T05:26:14;93954.47;;;7.21;100.00
51829;BME280;37881;48.024;8.774;2022-09-12T05:28:42;93948.97;;;7.39;100.00
51829;BME280;37881;48.024;8.774;2022-09-12T05:31:14;93950.91;;;7.42;100.00
51829;BME280;37881;48.024;8.774;2022-09-12T05:33:43;93947.03;;;7.36;100.00
51829;BME280;37881;48.024;8.774;2022-09-12T05:36:15;93952.50;;;7.36;100.00
51829;BME280;37881;48.024;8.774;2022-09-12T05:38:43;93952.88;;;7.45;100.00
51829;BME280;37881;48.024;8.774;2022-09-12T05:41:13;93947.44;;;7.31;100.00
51829;BME280;37881;48.024;8.774;2022-09-12T05:43:50;93954.41;;;7.46;100.00
51829;BME280;37881;48.024;8.774;2022-09-12T05:46:18;93955.22;;;7.47;100.00
51829;BME280;37881;48.024;8.774;2022-09-12T05:48:46;93955.22;;;7.36;100.00
51829;BME280;37881;48.024;8.774;2022-09-12T05:51:20;93957.91;;;7.54;100.00
51829;BME280;37881;48.024;8.774;2022-09-12T05:53:52;93955.88;;;7.72;100.00
51829;BME280;37881;48.024;8.774;2022-09-12T05:56:22;93958.16;;;7.88;98.89
51829;BME280;37881;48.024;8.774;2022-09-12T05:58:54;93957.66;;;8.15;98.01
51829;BME280;37881;48.024;8.774;2022-09-12T06:01:21;93964.22;;;8.28;97.32
51829;BME280;37881;48.024;8.774;2022-09-12T06:03:51;93965.22;;;8.59;94.84
51829;BME280;37881;48.024;8.774;2022-09-12T06:06:20;93965.97;;;8.64;93.73
51829;BME280;37881;48.024;8.774;2022-09-12T06:08:50;93972.25;;;8.57;93.80
51829;BME280;37881;48.024;8.774;2022-09-12T06:11:22;93968.84;;;8.98;92.18
51829;BME280;37881;48.024;8.774;2022-09-12T06:13:51;93975.41;;;9.49;89.59
51829;BME280;37881;48.024;8.774;2022-09-12T06:16:21;93971.91;;;9.83;88.79
51829;BME280;37881;48.024;8.774;2022-09-12T06:18:51;93981.06;;;10.04;87.90
51829;BME280;37881;48.024;8.774;2022-09-12T06:21:19;93976.88;;;9.92;87.34
51829;BME280;37881;48.024;8.774;2022-09-12T06:23:47;93976.22;;;10.15;86.28
51829;BME280;37881;48.024;8.774;2022-09-12T06:26:15;93976.13;;;9.91;85.81
51829;BME280;37881;48.024;8.774;2022-09-12T06:28:43;93974.59;;;10.52;85.30
51829;BME280;37881;48.024;8.774;2022-09-12T06:31:13;93966.78;;;11.25;82.39
51829;BME280;37881;48.024;8.774;2022-09-12T06:33:41;93965.25;;;11.47;81.45
51829;BME280;37881;48.024;8.774;2022-09-12T06:36:11;93963.13;;;11.75;78.75
51829;BME280;37881;48.024;8.774;2022-09-12T06:38:39;93959.94;;;11.13;80.69
51829;BME280;37881;48.024;8.774;2022-09-12T06:41:08;93964.00;;;11.72;80.42
51829;BME280;37881;48.024;8.774;2022-09-12T06:43:36;93965.16;;;12.14;77.92
51829;BME280;37881;48.024;8.774;2022-09-12T06:46:03;93956.63;;;12.45;76.77
51829;BME280;37881;48.024;8.774;2022-09-12T06:48:30;93961.75;;;12.63;75.08
51829;BME280;37881;48.024;8.774;2022-09-12T06:50:58;93958.84;;;12.70;74.46
51829;BME280;37881;48.024;8.774;2022-09-12T06:53:27;93957.63;;;12.71;74.63
51829;BME280;37881;48.024;8.774;2022-09-12T06:56:02;93953.78;;;13.02;73.09
51829;BME280;37881;48.024;8.774;2022-09-12T06:58:29;93952.78;;;13.74;71.22
51829;BME280;37881;48.024;8.774;2022-09-12T07:01:06;93955.56;;;14.16;69.72
51829;BME280;37881;48.024;8.774;2022-09-12T07:03:34;93946.97;;;15.07;66.41
51829;BME280;37881;48.024;8.774;2022-09-12T07:06:09;93946.63;;;17.16;60.68
51829;BME280;37881;48.024;8.774;2022-09-12T07:08:36;93937.50;;;19.58;53.45
51829;BME280;37881;48.024;8.774;2022-09-12T07:13:40;93942.34;;;20.80;47.91
51829;BME280;37881;48.024;8.774;2022-09-12T07:16:08;93941.16;;;20.27;48.91
51829;BME280;37881;48.024;8.774;2022-09-12T07:18:36;93939.25;;;20.33;49.77
51829;BME280;37881;48.024;8.774;2022-09-12T07:21:06;93937.69;;;23.61;43.80
51829;BME280;37881;48.024;8.774;2022-09-12T07:23:33;93922.34;;;25.16;40.30
51829;BME280;37881;48.024;8.774;2022-09-12T07:26:00;93929.09;;;26.05;37.76
51829;BME280;37881;48.024;8.774;2022-09-12T07:28:29;93930.09;;;26.13;37.02
51829;BME280;37881;48.024;8.774;2022-09-12T07:30:56;93933.06;;;26.85;35.45
51829;BME280;37881;48.024;8.774;2022-09-12T07:33:26;93931.84;;;26.75;36.00
51829;BME280;37881;48.024;8.774;2022-09-12T07:35:53;93929.69;;;24.51;39.19
51829;BME280;37881;48.024;8.774;2022-09-12T07:38:20;93929.66;;;24.45;40.54
51829;BME280;37881;48.024;8.774;2022-09-12T07:40:47;93928.97;;;24.96;39.15
51829;BME280;37881;48.024;8.774;2022-09-12T07:43:14;93923.59;;;25.43;38.38
51829;BME280;37881;48.024;8.774;2022-09-12T07:45:41;93932.13;;;27.43;36.02
51829;BME280;37881;48.024;8.774;2022-09-12T07:48:08;93922.97;;;27.61;35.45
51829;BME280;37881;48.024;8.774;2022-09-12T07:50:35;93929.78;;;27.72;34.99
51829;BME280;37881;48.024;8.774;2022-09-12T07:53:03;93921.38;;;26.22;36.69
51829;BME280;37881;48.024;8.774;2022-09-12T07:55:30;93920.34;;;26.73;35.60
51829;BME280;37881;48.024;8.774;2022-09-12T07:57:57;93922.47;;;26.55;35.94
51829;BME280;37881;48.024;8.774;2022-09-12T08:00:24;93922.75;;;26.93;35.66
51829;BME280;37881;48.024;8.774;2022-09-12T08:02:51;93919.13;;;28.71;33.52
51829;BME280;37881;48.024;8.774;2022-09-12T08:05:19;93917.84;;;29.95;31.12
51829;BME280;37881;48.024;8.774;2022-09-12T08:07:49;93919.28;;;29.89;31.59
51829;BME280;37881;48.024;8.774;2022-09-12T08:10:20;93920.13;;;28.54;33.40
51829;BME280;37881;48.024;8.774;2022-09-12T08:12:47;93919.66;;;29.53;32.52
51829;BME280;37881;48.024;8.774;2022-09-12T08:15:13;93919.13;;;28.08;35.46
51829;BME280;37881;48.024;8.774;2022-09-12T08:17:41;93921.88;;;28.76;34.49
51829;BME280;37881;48.024;8.774;2022-09-12T08:20:08;93918.84;;;29.98;32.17
51829;BME280;37881;48.024;8.774;2022-09-12T08:22:35;93916.13;;;30.93;31.58
51829;BME280;37881;48.024;8.774;2022-09-12T08:25:02;93921.63;;;32.04;28.29
51829;BME280;37881;48.024;8.774;2022-09-12T08:27:28;93930.94;;;28.06;34.86
51829;BME280;37881;48.024;8.774;2022-09-12T08:29:55;93923.31;;;29.47;31.82
51829;BME280;37881;48.024;8.774;2022-09-12T08:32:22;93928.38;;;30.61;30.55
51829;BME280;37881;48.024;8.774;2022-09-12T08:34:48;93929.19;;;29.95;31.15
51829;BME280;37881;48.024;8.774;2022-09-12T08:37:15;93921.13;;;30.53;30.41
51829;BME280;37881;48.024;8.774;2022-09-12T08:39:42;93925.25;;;31.20;28.61
51829;BME280;37881;48.024;8.774;2022-09-12T08:42:09;93928.50;;;32.16;26.35
51829;BME280;37881;48.024;8.774;2022-09-12T08:45:04;93923.94;;;32.42;26.75
51829;BME280;37881;48.024;8.774;2022-09-12T08:47:37;93920.63;;;34.34;24.18
51829;BME280;37881;48.024;8.774;2022-09-12T08:50:12;93933.75;;;32.41;25.98
51829;BME280;37881;48.024;8.774;2022-09-12T08:55:33;93923.91;;;33.92;25.01
51829;BME280;37881;48.024;8.774;2022-09-12T08:58:14;93923.69;;;34.84;23.30
51829;BME280;37881;48.024;8.774;2022-09-12T09:18:01;93918.81;;;32.84;25.44
51829;BME280;37881;48.024;8.774;2022-09-12T09:20:55;93919.53;;;33.68;24.55
51829;BME280;37881;48.024;8.774;2022-09-12T09:23:27;93909.47;;;34.05;22.95
51829;BME280;37881;48.024;8.774;2022-09-12T09:26:05;93914.66;;;34.55;22.96
51829;BME280;37881;48.024;8.774;2022-09-12T09:28:40;93915.56;;;32.73;24.09
51829;BME280;37881;48.024;8.774;2022-09-12T09:31:16;93919.47;;;31.47;26.37
51829;BME280;37881;48.024;8.774;2022-09-12T09:33:43;93918.00;;;32.03;26.14
51829;BME280;37881;48.024;8.774;2022-09-12T09:36:35;93919.69;;;32.72;24.82
51829;BME280;37881;48.024;8.774;2022-09-12T09:42:00;93914.22;;;33.49;24.02
51829;BME280;37881;48.024;8.774;2022-09-12T09:44:35;93912.22;;;32.53;24.92
51829;BME280;37881;48.024;8.774;2022-09-12T09:47:02;93908.53;;;32.01;25.47
51829;BME280;37881;48.024;8.774;2022-09-12T09:49:31;93907.94;;;33.96;23.80
51829;BME280;37881;48.024;8.774;2022-09-12T09:51:59;93901.25;;;34.32;23.37
51829;BME280;37881;48.024;8.774;2022-09-12T09:54:35;93907.09;;;32.15;24.42
51829;BME280;37881;48.024;8.774;2022-09-12T09:57:03;93903.97;;;33.53;24.07
51829;BME280;37881;48.024;8.774;2022-09-12T09:59:32;93902.66;;;33.70;24.45
51829;BME280;37881;48.024;8.774;2022-09-12T10:02:07;93903.41;;;33.47;23.13
51829;BME280;37881;48.024;8.774;2022-09-12T10:04:56;93911.31;;;32.22;24.93
51829;BME280;37881;48.024;8.774;2022-09-12T10:07:25;93899.16;;;32.50;23.54
51829;BME280;37881;48.024;8.774;2022-09-12T10:12:31;93897.56;;;31.76;23.58
51829;BME280;37881;48.024;8.774;2022-09-12T10:15:03;93894.47;;;31.24;24.90
51829;BME280;37881;48.024;8.774;2022-09-12T10:17:43;93892.56;;;30.85;25.27
51829;BME280;37881;48.024;8.774;2022-09-12T10:20:39;93887.84;;;31.64;24.28
51829;BME280;37881;48.024;8.774;2022-09-12T10:25:58;93885.31;;;30.29;26.02
51829;BME280;37881;48.024;8.774;2022-09-12T10:28:41;93884.84;;;30.51;24.79
51829;BME280;37881;48.024;8.774;2022-09-12T10:31:13;93877.69;;;30.10;25.26
51829;BME280;37881;48.024;8.774;2022-09-12T10:33:44;93877.22;;;29.53;26.62
51829;BME280;37881;48.024;8.774;2022-09-12T10:36:13;93882.97;;;29.47;26.39
51829;BME280;37881;48.024;8.774;2022-09-12T10:38:48;93879.81;;;30.57;25.15
51829;BME280;37881;48.024;8.774;2022-09-12T10:41:15;93878.38;;;30.98;25.45
51829;BME280;37881;48.024;8.774;2022-09-12T10:43:42;93874.03;;;31.97;23.56
51829;BME280;37881;48.024;8.774;2022-09-12T10:49:11;93876.59;;;26.66;30.15
51829;BME280;37881;48.024;8.774;2022-09-12T10:51:37;93876.47;;;30.80;25.46
51829;BME280;37881;48.024;8.774;2022-09-12T10:54:07;93879.31;;;32.58;22.82
51829;BME280;37881;48.024;8.774;2022-09-12T10:57:04;93878.28;;;32.40;22.18
51829;BME280;37881;48.024;8.774;2022-09-12T11:00:02;93874.72;;;32.11;22.38
51829;BME280;37881;48.024;8.774;2022-09-12T11:02:39;93870.34;;;30.55;24.32
51829;BME280;37881;48.024;8.774;2022-09-12T11:05:16;93879.38;;;30.88;23.78
51829;BME280;37881;48.024;8.774;2022-09-12T11:07:49;93872.03;;;31.48;23.25
51829;BME280;37881;48.024;8.774;2022-09-12T11:13:39;93881.66;;;27.64;27.78
51829;BME280;37881;48.024;8.774;2022-09-12T11:16:32;93874.00;;;27.04;28.71
51829;BME280;37881;48.024;8.774;2022-09-12T11:22:06;93877.72;;;26.46;29.47
51829;BME280;37881;48.024;8.774;2022-09-12T11:30:15;93865.66;;;25.40;31.10
51829;BME280;37881;48.024;8.774;2022-09-12T11:35:22;93867.28;;;25.88;30.46
51829;BME280;37881;48.024;8.774;2022-09-12T11:40:43;93862.91;;;26.45;30.56
51829;BME280;37881;48.024;8.774;2022-09-12T11:46:31;93857.50;;;25.08;32.53
51829;BME280;37881;48.024;8.774;2022-09-12T11:52:03;93853.66;;;25.11;32.67
51829;BME280;37881;48.024;8.774;2022-09-12T11:59:46;93845.16;;;25.56;32.35
51829;BME280;37881;48.024;8.774;2022-09-12T12:02:23;93841.41;;;25.14;31.78
51829;BME280;37881;48.024;8.774;2022-09-12T12:07:33;93838.91;;;24.99;33.58
51829;BME280;37881;48.024;8.774;2022-09-12T12:12:50;93840.94;;;24.65;34.69
51829;BME280;37881;48.024;8.774;2022-09-12T12:15:19;93835.94;;;23.92;36.32
51829;BME280;37881;48.024;8.774;2022-09-12T12:18:44;93832.13;;;23.35;38.09
51829;BME280;37881;48.024;8.774;2022-09-12T12:20:46;93832.59;;;23.28;38.22
51829;BME280;37881;48.024;8.774;2022-09-12T12:23:24;93831.00;;;22.78;37.08
51829;BME280;37881;48.024;8.774;2022-09-12T12:25:57;93831.91;;;22.64;37.83
51829;BME280;37881;48.024;8.774;2022-09-12T12:31:17;93828.25;;;23.21;38.03
51829;BME280;37881;48.024;8.774;2022-09-12T12:36:39;93824.41;;;21.50;39.76
51829;BME280;37881;48.024;8.774;2022-09-12T12:41:59;93818.84;;;22.55;38.75
51829;BME280;37881;48.024;8.774;2022-09-12T12:49:50;93813.91;;;23.08;38.20
51829;BME280;37881;48.024;8.774;2022-09-12T12:52:18;93805.34;;;23.77;37.84
51829;BME280;37881;48.024;8.774;2022-09-12T12:59:46;93805.16;;;24.15;37.13
51829;BME280;37881;48.024;8.774;2022-09-12T13:02:22;93808.25;;;24.17;37.53
51829;BME280;37881;48.024;8.774;2022-09-12T13:04:49;93806.72;;;24.38;36.56
51829;BME280;37881;48.024;8.774;2022-09-12T13:07:37;93808.00;;;24.37;36.53
51829;BME280;37881;48.024;8.774;2022-09-12T13:10:06;93801.16;;;24.55;36.78
51829;BME280;37881;48.024;8.774;2022-09-12T13:12:37;93792.22;;;24.57;35.79
51829;BME280;37881;48.024;8.774;2022-09-12T13:15:45;93795.00;;;24.57;35.88
51829;BME280;37881;48.024;8.774;2022-09-12T13:18:20;93793.72;;;24.35;37.00
51829;BME280;37881;48.024;8.774;2022-09-12T13:21:11;93791.38;;;23.28;38.57
51829;BME280;37881;48.024;8.774;2022-09-12T13:23:39;93787.03;;;22.84;39.07
51829;BME280;37881;48.024;8.774;2022-09-12T13:26:20;93789.09;;;22.89;39.26
51829;BME280;37881;48.024;8.774;2022-09-12T13:28:47;93791.41;;;22.01;40.51
51829;BME280;37881;48.024;8.774;2022-09-12T13:31:25;93784.91;;;22.73;38.47
51829;BME280;37881;48.024;8.774;2022-09-12T13:33:58;93788.41;;;23.00;38.62
51829;BME280;37881;48.024;8.774;2022-09-12T13:39:46;93779.00;;;23.46;37.67
51829;BME280;37881;48.024;8.774;2022-09-12T13:45:02;93783.81;;;22.60;39.73
51829;BME280;37881;48.024;8.774;2022-09-12T13:47:40;93782.13;;;22.73;39.62
51829;BME280;37881;48.024;8.774;2022-09-12T13:50:36;93772.34;;;23.38;38.38
51829;BME280;37881;48.024;8.774;2022-09-12T13:53:00;93780.16;;;23.23;38.88
51829;BME280;37881;48.024;8.774;2022-09-12T13:58:05;93774.31;;;24.03;38.23
51829;BME280;37881;48.024;8.774;2022-09-12T14:00:33;93772.59;;;23.40;38.03
51829;BME280;37881;48.024;8.774;2022-09-12T14:03:01;93764.09;;;23.18;39.39
51829;BME280;37881;48.024;8.774;2022-09-12T14:06:21;93759.56;;;23.31;39.30
51829;BME280;37881;48.024;8.774;2022-09-12T14:08:47;93750.31;;;23.80;37.31
51829;BME280;37881;48.024;8.774;2022-09-12T14:11:23;93749.69;;;23.47;37.72
51829;BME280;37881;48.024;8.774;2022-09-12T14:13:51;93746.28;;;24.03;37.39
51829;BME280;37881;48.024;8.774;2022-09-12T14:16:18;93752.13;;;23.83;36.68
51829;BME280;37881;48.024;8.774;2022-09-12T14:18:50;93752.88;;;23.12;38.48
51829;BME280;37881;48.024;8.774;2022-09-12T14:21:35;93746.44;;;23.66;38.35
51829;BME280;37881;48.024;8.774;2022-09-12T14:24:04;93753.56;;;23.61;39.71
51829;BME280;37881;48.024;8.774;2022-09-12T14:26:33;93744.34;;;23.49;39.42
51829;BME280;37881;48.024;8.774;2022-09-12T14:29:04;93750.25;;;23.63;38.09
51829;BME280;37881;48.024;8.774;2022-09-12T14:31:36;93742.66;;;23.80;36.77
51829;BME280;37881;48.024;8.774;2022-09-12T14:36:50;93746.00;;;23.13;38.11
51829;BME280;37881;48.024;8.774;2022-09-12T14:42:13;93739.41;;;22.73;39.44
51829;BME280;37881;48.024;8.774;2022-09-12T14:45:00;93738.41;;;22.76;39.81
51829;BME280;37881;48.024;8.774;2022-09-12T14:47:35;93732.91;;;22.93;39.38
51829;BME280;37881;48.024;8.774;2022-09-12T14:50:15;93736.84;;;23.12;38.62
51829;BME280;37881;48.024;8.774;2022-09-12T14:52:42;93731.50;;;23.15;39.63
51829;BME280;37881;48.024;8.774;2022-09-12T14:55:19;93727.75;;;23.35;38.88
51829;BME280;37881;48.024;8.774;2022-09-12T14:58:15;93729.28;;;23.36;38.71
51829;BME280;37881;48.024;8.774;2022-09-12T15:03:30;93717.88;;;23.45;38.52
51829;BME280;37881;48.024;8.774;2022-09-12T15:05:58;93722.97;;;23.52;39.05
51829;BME280;37881;48.024;8.774;2022-09-12T15:08:25;93722.00;;;23.66;38.36
51829;BME280;37881;48.024;8.774;2022-09-12T15:10:52;93724.28;;;23.57;36.62
51829;BME280;37881;48.024;8.774;2022-09-12T15:13:21;93725.78;;;23.58;38.94
51829;BME280;37881;48.024;8.774;2022-09-12T15:15:51;93722.91;;;23.29;39.91
51829;BME280;37881;48.024;8.774;2022-09-12T15:18:19;93722.16;;;23.35;40.66
51829;BME280;37881;48.024;8.774;2022-09-12T15:20:48;93723.66;;;23.30;40.76
51829;BME280;37881;48.024;8.774;2022-09-12T15:26:06;93719.88;;;23.39;39.07
51829;BME280;37881;48.024;8.774;2022-09-12T15:28:33;93731.09;;;23.39;39.79
51829;BME280;37881;48.024;8.774;2022-09-12T15:31:06;93724.13;;;23.17;39.97
51829;BME280;37881;48.024;8.774;2022-09-12T15:33:33;93722.44;;;23.42;40.58
51829;BME280;37881;48.024;8.774;2022-09-12T15:36:00;93721.13;;;23.32;40.65
51829;BME280;37881;48.024;8.774;2022-09-12T15:38:27;93719.13;;;23.38;42.07
51829;BME280;37881;48.024;8.774;2022-09-12T15:40:53;93716.63;;;22.97;43.12
51829;BME280;37881;48.024;8.774;2022-09-12T15:43:21;93714.56;;;22.86;42.84
51829;BME280;37881;48.024;8.774;2022-09-12T15:45:49;93708.56;;;23.05;42.16
51829;BME280;37881;48.024;8.774;2022-09-12T15:48:18;93711.16;;;23.20;42.24
51829;BME280;37881;48.024;8.774;2022-09-12T15:50:46;93713.44;;;23.16;41.51
51829;BME280;37881;48.024;8.774;2022-09-12T15:53:14;93696.41;;;22.70;43.40